sensor_id;sensor_type;location;lat;lon;timestamp;P1;durP1;ratioP1;P2;durP2;ratioP2
1613;SDS011;800;48.824;9.346;2022-11-20T00:00:01;8.37;;;7.40;;
1613;SDS011;800;48.824;9.346;2022-11-20T00:02:26;9.83;;;7.80;;
1613;SDS011;800;48.824;9.346;2022-11-20T00:04:52;9.40;;;7.20;;
1613;SDS011;800;48.824;9.346;2022-11-20T00:07:17;25.63;;;18.10;;
1613;SDS011;800;48.824;9.346;2022-11-20T00:09:43;17.27;;;13.17;;
1613;SDS011;800;48.824;9.346;2022-11-20T00:12:08;12.80;;;10.10;;
1613;SDS011;800;48.824;9.346;2022-11-20T00:14:34;11.00;;;9.20;;
1613;SDS011;800;48.824;9.346;2022-11-20T00:17:00;8.50;;;7.67;;
1613;SDS011;800;48.824;9.346;2022-11-20T00:19:25;8.70;;;7.37;;
1613;SDS011;800;48.824;9.346;2022-11-20T00:21:51;10.10;;;8.10;;
1613;SDS011;800;48.824;9.346;2022-11-20T00:24:18;10.73;;;8.70;;
1613;SDS011;800;48.824;9.346;2022-11-20T00:26:44;9.40;;;7.23;;
1613;SDS011;800;48.824;9.346;2022-11-20T00:29:10;9.20;;;8.30;;
1613;SDS011;800;48.824;9.346;2022-11-20T00:31:35;10.43;;;8.23;;
1613;SDS011;800;48.824;9.346;2022-11-20T00:34:01;10.77;;;8.47;;
1613;SDS011;800;48.824;9.346;2022-11-20T00:36:27;8.77;;;7.87;;
1613;SDS011;800;48.824;9.346;2022-11-20T00:38:55;10.37;;;8.77;;
1613;SDS011;800;48.824;9.346;2022-11-20T00:41:21;10.00;;;8.33;;
1613;SDS011;800;48.824;9.346;2022-11-20T00:43:48;10.07;;;8.30;;
1613;SDS011;800;48.824;9.346;2022-11-20T00:46:15;9.63;;;8.63;;
1613;SDS011;800;48.824;9.346;2022-11-20T00:48:42;12.30;;;8.90;;
1613;SDS011;800;48.824;9.346;2022-11-20T00:51:08;11.10;;;8.97;;
1613;SDS011;800;48.824;9.346;2022-11-20T00:53:35;10.77;;;8.17;;
1613;SDS011;800;48.824;9.346;2022-11-20T00:56:05;10.30;;;9.20;;
1613;SDS011;800;48.824;9.346;2022-11-20T00:58:33;10.47;;;8.90;;
1613;SDS011;800;48.824;9.346;2022-11-20T01:01:22;11.33;;;7.47;;
1613;SDS011;800;48.824;9.346;2022-11-20T01:03:52;9.60;;;7.80;;
1613;SDS011;800;48.824;9.346;2022-11-20T01:06:22;10.37;;;8.50;;
1613;SDS011;800;48.824;9.346;2022-11-20T01:08:50;10.70;;;7.87;;
1613;SDS011;800;48.824;9.346;2022-11-20T01:11:21;9.27;;;7.97;;
1613;SDS011;800;48.824;9.346;2022-11-20T01:13:49;8.47;;;7.57;;
1613;SDS011;800;48.824;9.346;2022-11-20T01:16:19;12.50;;;8.17;;
1613;SDS011;800;48.824;9.346;2022-11-20T01:18:55;8.93;;;8.00;;
1613;SDS011;800;48.824;9.346;2022-11-20T01:21:23;8.20;;;6.87;;
1613;SDS011;800;48.824;9.346;2022-11-20T01:23:59;9.57;;;7.10;;
1613;SDS011;800;48.824;9.346;2022-11-20T01:26:27;8.93;;;7.00;;
1613;SDS011;800;48.824;9.346;2022-11-20T01:28:54;9.10;;;7.50;;
1613;SDS011;800;48.824;9.346;2022-11-20T01:31:25;8.67;;;7.77;;
1613;SDS011;800;48.824;9.346;2022-11-20T01:33:53;8.53;;;7.10;;
1613;SDS011;800;48.824;9.346;2022-11-20T01:36:25;9.57;;;7.13;;
1613;SDS011;800;48.824;9.346;2022-11-20T01:38:53;9.83;;;7.90;;
1613;SDS011;800;48.824;9.346;2022-11-20T01:41:20;11.20;;;8.17;;
1613;SDS011;800;48.824;9.346;2022-11-20T01:44:05;9.33;;;8.10;;
1613;SDS011;800;48.824;9.346;2022-11-20T01:46:33;9.90;;;8.00;;
1613;SDS011;800;48.824;9.346;2022-11-20T01:49:07;10.40;;;7.87;;
1613;SDS011;800;48.824;9.346;2022-11-20T01:54:25;10.30;;;7.60;;
1613;SDS011;800;48.824;9.346;2022-11-20T01:56:59;9.37;;;7.93;;
1613;SDS011;800;48.824;9.346;2022-11-20T01:59:25;8.70;;;7.27;;
1613;SDS011;800;48.824;9.346;2022-11-20T02:01:53;7.80;;;6.23;;
1613;SDS011;800;48.824;9.346;2022-11-20T02:04:19;10.10;;;7.80;;
1613;SDS011;800;48.824;9.346;2022-11-20T02:06:47;7.67;;;6.87;;
1613;SDS011;800;48.824;9.346;2022-11-20T02:09:16;8.73;;;7.80;;
1613;SDS011;800;48.824;9.346;2022-11-20T02:11:42;8.63;;;7.07;;
1613;SDS011;800;48.824;9.346;2022-11-20T02:14:08;7.80;;;6.30;;
1613;SDS011;800;48.824;9.346;2022-11-20T02:16:35;7.87;;;6.80;;
1613;SDS011;800;48.824;9.346;2022-11-20T02:19:05;7.67;;;6.53;;
1613;SDS011;800;48.824;9.346;2022-11-20T02:24:38;10.83;;;6.23;;
1613;SDS011;800;48.824;9.346;2022-11-20T02:27:06;9.30;;;7.10;;
1613;SDS011;800;48.824;9.346;2022-11-20T02:34:46;6.53;;;4.73;;
1613;SDS011;800;48.824;9.346;2022-11-20T02:37:12;5.00;;;4.50;;
1613;SDS011;800;48.824;9.346;2022-11-20T02:39:39;4.33;;;3.87;;
1613;SDS011;800;48.824;9.346;2022-11-20T02:42:06;6.40;;;4.80;;
1613;SDS011;800;48.824;9.346;2022-11-20T02:44:32;6.03;;;4.47;;
1613;SDS011;800;48.824;9.346;2022-11-20T02:46:57;4.90;;;4.00;;
1613;SDS011;800;48.824;9.346;2022-11-20T02:49:24;4.80;;;4.10;;
1613;SDS011;800;48.824;9.346;2022-11-20T02:51:49;4.30;;;3.70;;
1613;SDS011;800;48.824;9.346;2022-11-20T02:54:15;3.60;;;3.30;;
1613;SDS011;800;48.824;9.346;2022-11-20T02:56:41;4.37;;;3.40;;
1613;SDS011;800;48.824;9.346;2022-11-20T02:59:07;5.77;;;4.20;;
1613;SDS011;800;48.824;9.346;2022-11-20T03:01:32;4.50;;;4.10;;
1613;SDS011;800;48.824;9.346;2022-11-20T03:03:58;4.43;;;4.03;;
1613;SDS011;800;48.824;9.346;2022-11-20T03:06:24;4.10;;;3.70;;
1613;SDS011;800;48.824;9.346;2022-11-20T03:08:49;4.20;;;3.80;;
1613;SDS011;800;48.824;9.346;2022-11-20T03:11:15;4.20;;;3.20;;
1613;SDS011;800;48.824;9.346;2022-11-20T03:13:41;2.90;;;2.70;;
1613;SDS011;800;48.824;9.346;2022-11-20T03:16:08;3.70;;;2.70;;
1613;SDS011;800;48.824;9.346;2022-11-20T03:18:36;2.60;;;2.40;;
1613;SDS011;800;48.824;9.346;2022-11-20T03:21:02;3.43;;;2.73;;
1613;SDS011;800;48.824;9.346;2022-11-20T03:23:29;2.80;;;2.60;;
1613;SDS011;800;48.824;9.346;2022-11-20T03:25:56;3.33;;;2.30;;
1613;SDS011;800;48.824;9.346;2022-11-20T03:28:42;2.70;;;2.50;;
1613;SDS011;800;48.824;9.346;2022-11-20T03:31:13;4.63;;;2.33;;
1613;SDS011;800;48.824;9.346;2022-11-20T03:33:40;3.63;;;2.50;;
1613;SDS011;800;48.824;9.346;2022-11-20T03:36:11;2.97;;;2.70;;
1613;SDS011;800;48.824;9.346;2022-11-20T03:38:38;3.10;;;2.80;;
1613;SDS011;800;48.824;9.346;2022-11-20T03:41:09;3.10;;;2.70;;
1613;SDS011;800;48.824;9.346;2022-11-20T03:43:36;3.23;;;2.70;;
1613;SDS011;800;48.824;9.346;2022-11-20T03:46:03;4.37;;;3.07;;
1613;SDS011;800;48.824;9.346;2022-11-20T03:48:29;2.90;;;2.63;;
1613;SDS011;800;48.824;9.346;2022-11-20T03:51:11;2.70;;;2.50;;
1613;SDS011;800;48.824;9.346;2022-11-20T03:53:42;4.30;;;3.13;;
1613;SDS011;800;48.824;9.346;2022-11-20T03:56:10;3.17;;;2.90;;
1613;SDS011;800;48.824;9.346;2022-11-20T03:58:39;3.23;;;3.00;;
1613;SDS011;800;48.824;9.346;2022-11-20T04:01:10;3.20;;;2.90;;
1613;SDS011;800;48.824;9.346;2022-11-20T04:03:40;4.37;;;3.00;;
1613;SDS011;800;48.824;9.346;2022-11-20T04:06:14;6.00;;;3.50;;
1613;SDS011;800;48.824;9.346;2022-11-20T04:08:44;5.07;;;3.07;;
1613;SDS011;800;48.824;9.346;2022-11-20T04:11:11;3.30;;;3.00;;
1613;SDS011;800;48.824;9.346;2022-11-20T04:13:39;3.37;;;3.10;;
1613;SDS011;800;48.824;9.346;2022-11-20T04:16:05;3.37;;;3.07;;
1613;SDS011;800;48.824;9.346;2022-11-20T04:18:33;2.90;;;2.70;;
1613;SDS011;800;48.824;9.346;2022-11-20T04:20:59;3.90;;;2.77;;
1613;SDS011;800;48.824;9.346;2022-11-20T04:23:25;3.20;;;2.90;;
1613;SDS011;800;48.824;9.346;2022-11-20T04:25:51;3.03;;;2.73;;
1613;SDS011;800;48.824;9.346;2022-11-20T04:28:17;3.53;;;2.63;;
1613;SDS011;800;48.824;9.346;2022-11-20T04:30:42;3.40;;;3.03;;
1613;SDS011;800;48.824;9.346;2022-11-20T04:33:08;2.70;;;2.50;;
1613;SDS011;800;48.824;9.346;2022-11-20T04:35:34;6.27;;;2.83;;
1613;SDS011;800;48.824;9.346;2022-11-20T04:38:00;3.77;;;3.20;;
1613;SDS011;800;48.824;9.346;2022-11-20T04:40:27;2.87;;;2.63;;
1613;SDS011;800;48.824;9.346;2022-11-20T04:42:53;3.00;;;2.67;;
1613;SDS011;800;48.824;9.346;2022-11-20T04:45:19;3.10;;;2.80;;
1613;SDS011;800;48.824;9.346;2022-11-20T04:47:45;4.10;;;2.53;;
1613;SDS011;800;48.824;9.346;2022-11-20T04:50:11;3.40;;;3.00;;
1613;SDS011;800;48.824;9.346;2022-11-20T04:52:36;2.93;;;2.60;;
1613;SDS011;800;48.824;9.346;2022-11-20T04:55:02;3.33;;;2.90;;
1613;SDS011;800;48.824;9.346;2022-11-20T04:57:27;3.30;;;2.90;;
1613;SDS011;800;48.824;9.346;2022-11-20T04:59:53;4.77;;;2.60;;
1613;SDS011;800;48.824;9.346;2022-11-20T05:02:18;4.53;;;3.30;;
1613;SDS011;800;48.824;9.346;2022-11-20T05:04:45;3.90;;;3.10;;
1613;SDS011;800;48.824;9.346;2022-11-20T05:07:10;2.60;;;2.40;;
1613;SDS011;800;48.824;9.346;2022-11-20T05:09:36;6.07;;;3.30;;
1613;SDS011;800;48.824;9.346;2022-11-20T05:12:01;2.70;;;2.40;;
1613;SDS011;800;48.824;9.346;2022-11-20T05:14:27;3.90;;;3.17;;
1613;SDS011;800;48.824;9.346;2022-11-20T05:16:53;3.43;;;2.57;;
1613;SDS011;800;48.824;9.346;2022-11-20T05:19:18;3.33;;;3.03;;
1613;SDS011;800;48.824;9.346;2022-11-20T05:21:44;4.30;;;3.00;;
1613;SDS011;800;48.824;9.346;2022-11-20T05:24:09;3.47;;;3.27;;
1613;SDS011;800;48.824;9.346;2022-11-20T05:26:35;2.93;;;2.60;;
1613;SDS011;800;48.824;9.346;2022-11-20T05:29:00;3.23;;;2.80;;
1613;SDS011;800;48.824;9.346;2022-11-20T05:31:26;3.70;;;2.93;;
1613;SDS011;800;48.824;9.346;2022-11-20T05:33:52;2.97;;;2.77;;
1613;SDS011;800;48.824;9.346;2022-11-20T05:36:17;4.63;;;2.90;;
1613;SDS011;800;48.824;9.346;2022-11-20T05:38:43;4.60;;;2.70;;
1613;SDS011;800;48.824;9.346;2022-11-20T05:41:12;2.83;;;2.63;;
1613;SDS011;800;48.824;9.346;2022-11-20T05:43:40;4.80;;;2.53;;
1613;SDS011;800;48.824;9.346;2022-11-20T05:46:08;2.60;;;2.40;;
1613;SDS011;800;48.824;9.346;2022-11-20T05:48:36;2.60;;;2.40;;
1613;SDS011;800;48.824;9.346;2022-11-20T05:51:02;2.60;;;2.40;;
1613;SDS011;800;48.824;9.346;2022-11-20T05:53:30;2.90;;;2.70;;
1613;SDS011;800;48.824;9.346;2022-11-20T05:55:58;2.90;;;2.30;;
1613;SDS011;800;48.824;9.346;2022-11-20T05:58:24;4.00;;;3.00;;
1613;SDS011;800;48.824;9.346;2022-11-20T06:00:50;2.60;;;2.40;;
1613;SDS011;800;48.824;9.346;2022-11-20T06:03:19;2.70;;;2.50;;
1613;SDS011;800;48.824;9.346;2022-11-20T06:05:44;7.00;;;2.30;;
1613;SDS011;800;48.824;9.346;2022-11-20T06:08:10;3.27;;;2.10;;
1613;SDS011;800;48.824;9.346;2022-11-20T06:10:35;2.67;;;2.47;;
1613;SDS011;800;48.824;9.346;2022-11-20T06:13:01;3.00;;;2.57;;
1613;SDS011;800;48.824;9.346;2022-11-20T06:15:26;2.43;;;2.27;;
1613;SDS011;800;48.824;9.346;2022-11-20T06:17:52;3.07;;;2.77;;
1613;SDS011;800;48.824;9.346;2022-11-20T06:20:19;2.73;;;2.53;;
1613;SDS011;800;48.824;9.346;2022-11-20T06:22:45;3.73;;;2.97;;
1613;SDS011;800;48.824;9.346;2022-11-20T06:25:11;2.87;;;2.57;;
1613;SDS011;800;48.824;9.346;2022-11-20T06:27:36;2.40;;;2.20;;
1613;SDS011;800;48.824;9.346;2022-11-20T06:30:02;3.60;;;2.43;;
1613;SDS011;800;48.824;9.346;2022-11-20T06:32:28;7.13;;;3.20;;
1613;SDS011;800;48.824;9.346;2022-11-20T06:34:54;4.30;;;2.00;;
1613;SDS011;800;48.824;9.346;2022-11-20T06:37:20;3.80;;;3.20;;
1613;SDS011;800;48.824;9.346;2022-11-20T06:39:45;2.67;;;2.47;;
1613;SDS011;800;48.824;9.346;2022-11-20T06:42:11;3.17;;;2.67;;
1613;SDS011;800;48.824;9.346;2022-11-20T06:44:36;2.97;;;2.30;;
1613;SDS011;800;48.824;9.346;2022-11-20T06:47:02;3.90;;;2.70;;
1613;SDS011;800;48.824;9.346;2022-11-20T06:49:27;2.53;;;2.33;;
1613;SDS011;800;48.824;9.346;2022-11-20T06:51:53;2.90;;;2.57;;
1613;SDS011;800;48.824;9.346;2022-11-20T06:54:18;2.53;;;2.33;;
1613;SDS011;800;48.824;9.346;2022-11-20T06:56:47;2.50;;;2.17;;
1613;SDS011;800;48.824;9.346;2022-11-20T06:59:13;3.33;;;2.97;;
1613;SDS011;800;48.824;9.346;2022-11-20T07:01:39;2.90;;;2.40;;
1613;SDS011;800;48.824;9.346;2022-11-20T07:04:04;5.00;;;2.40;;
1613;SDS011;800;48.824;9.346;2022-11-20T07:06:30;2.13;;;1.97;;
1613;SDS011;800;48.824;9.346;2022-11-20T07:08:56;2.87;;;2.47;;
1613;SDS011;800;48.824;9.346;2022-11-20T07:11:22;5.17;;;2.03;;
1613;SDS011;800;48.824;9.346;2022-11-20T07:13:48;1.97;;;1.87;;
1613;SDS011;800;48.824;9.346;2022-11-20T07:16:13;2.30;;;2.10;;
1613;SDS011;800;48.824;9.346;2022-11-20T07:18:39;2.37;;;2.17;;
1613;SDS011;800;48.824;9.346;2022-11-20T07:21:06;2.40;;;2.20;;
1613;SDS011;800;48.824;9.346;2022-11-20T07:23:33;2.10;;;1.93;;
1613;SDS011;800;48.824;9.346;2022-11-20T07:26:06;2.90;;;2.70;;
1613;SDS011;800;48.824;9.346;2022-11-20T07:28:33;3.67;;;2.73;;
1613;SDS011;800;48.824;9.346;2022-11-20T07:30:58;3.20;;;2.93;;
1613;SDS011;800;48.824;9.346;2022-11-20T07:33:24;2.83;;;2.20;;
1613;SDS011;800;48.824;9.346;2022-11-20T07:35:49;2.87;;;2.43;;
1613;SDS011;800;48.824;9.346;2022-11-20T07:38:15;3.50;;;2.90;;
1613;SDS011;800;48.824;9.346;2022-11-20T07:40:40;2.83;;;2.20;;
1613;SDS011;800;48.824;9.346;2022-11-20T07:43:06;2.90;;;2.43;;
1613;SDS011;800;48.824;9.346;2022-11-20T07:45:32;3.20;;;2.30;;
1613;SDS011;800;48.824;9.346;2022-11-20T07:47:57;2.13;;;2.03;;
1613;SDS011;800;48.824;9.346;2022-11-20T07:50:23;2.73;;;2.53;;
1613;SDS011;800;48.824;9.346;2022-11-20T07:52:48;2.10;;;1.90;;
1613;SDS011;800;48.824;9.346;2022-11-20T07:57:58;3.23;;;2.43;;
1613;SDS011;800;48.824;9.346;2022-11-20T08:00:24;2.53;;;2.33;;
1613;SDS011;800;48.824;9.346;2022-11-20T08:02:51;2.87;;;2.67;;
1613;SDS011;800;48.824;9.346;2022-11-20T08:05:16;3.07;;;2.57;;
1613;SDS011;800;48.824;9.346;2022-11-20T08:07:42;2.40;;;2.20;;
1613;SDS011;800;48.824;9.346;2022-11-20T08:10:09;2.90;;;2.57;;
1613;SDS011;800;48.824;9.346;2022-11-20T08:12:43;4.60;;;4.20;;
1613;SDS011;800;48.824;9.346;2022-11-20T08:15:31;2.90;;;2.70;;
1613;SDS011;800;48.824;9.346;2022-11-20T08:18:04;2.33;;;2.20;;
1613;SDS011;800;48.824;9.346;2022-11-20T08:20:30;3.37;;;2.63;;
1613;SDS011;800;48.824;9.346;2022-11-20T08:23:00;3.40;;;2.43;;
1613;SDS011;800;48.824;9.346;2022-11-20T08:25:27;2.10;;;1.90;;
1613;SDS011;800;48.824;9.346;2022-11-20T08:27:53;2.93;;;2.63;;
1613;SDS011;800;48.824;9.346;2022-11-20T08:30:21;3.20;;;2.33;;
1613;SDS011;800;48.824;9.346;2022-11-20T08:32:47;2.93;;;2.60;;
1613;SDS011;800;48.824;9.346;2022-11-20T08:35:12;4.10;;;2.50;;
1613;SDS011;800;48.824;9.346;2022-11-20T08:37:38;3.80;;;2.07;;
1613;SDS011;800;48.824;9.346;2022-11-20T08:40:06;4.37;;;2.23;;
1613;SDS011;800;48.824;9.346;2022-11-20T08:42:36;3.10;;;2.40;;
1613;SDS011;800;48.824;9.346;2022-11-20T08:45:01;4.27;;;2.70;;
1613;SDS011;800;48.824;9.346;2022-11-20T08:47:27;4.13;;;2.40;;
1613;SDS011;800;48.824;9.346;2022-11-20T08:49:53;2.50;;;2.30;;
1613;SDS011;800;48.824;9.346;2022-11-20T08:52:19;3.13;;;2.60;;
1613;SDS011;800;48.824;9.346;2022-11-20T08:54:45;2.13;;;1.97;;
1613;SDS011;800;48.824;9.346;2022-11-20T08:57:11;2.00;;;1.70;;
1613;SDS011;800;48.824;9.346;2022-11-20T08:59:36;1.80;;;1.70;;
1613;SDS011;800;48.824;9.346;2022-11-20T09:02:02;2.50;;;2.07;;
1613;SDS011;800;48.824;9.346;2022-11-20T09:04:27;2.00;;;1.90;;
1613;SDS011;800;48.824;9.346;2022-11-20T09:06:53;2.10;;;1.90;;
1613;SDS011;800;48.824;9.346;2022-11-20T09:09:19;4.23;;;2.47;;
1613;SDS011;800;48.824;9.346;2022-11-20T09:11:45;2.00;;;1.70;;
1613;SDS011;800;48.824;9.346;2022-11-20T09:14:10;2.50;;;1.83;;
1613;SDS011;800;48.824;9.346;2022-11-20T09:16:36;2.50;;;1.60;;
1613;SDS011;800;48.824;9.346;2022-11-20T09:19:01;1.80;;;1.70;;
1613;SDS011;800;48.824;9.346;2022-11-20T09:21:27;2.03;;;1.83;;
1613;SDS011;800;48.824;9.346;2022-11-20T09:23:52;1.73;;;1.63;;
1613;SDS011;800;48.824;9.346;2022-11-20T09:26:18;3.70;;;1.50;;
1613;SDS011;800;48.824;9.346;2022-11-20T09:28:44;1.60;;;1.50;;
1613;SDS011;800;48.824;9.346;2022-11-20T09:31:43;1.27;;;1.27;;
1613;SDS011;800;48.824;9.346;2022-11-20T09:34:02;1.57;;;1.47;;
1613;SDS011;800;48.824;9.346;2022-11-20T09:36:27;1.90;;;1.70;;
1613;SDS011;800;48.824;9.346;2022-11-20T09:38:53;2.07;;;1.83;;
1613;SDS011;800;48.824;9.346;2022-11-20T09:47:03;2.67;;;2.30;;
1613;SDS011;800;48.824;9.346;2022-11-20T09:55:04;2.20;;;1.50;;
1613;SDS011;800;48.824;9.346;2022-11-20T09:57:36;1.27;;;1.10;;
1613;SDS011;800;48.824;9.346;2022-11-20T10:00:05;1.50;;;1.40;;
1613;SDS011;800;48.824;9.346;2022-11-20T10:05:30;1.43;;;1.33;;
1613;SDS011;800;48.824;9.346;2022-11-20T10:08:47;1.40;;;1.20;;
1613;SDS011;800;48.824;9.346;2022-11-20T10:11:19;1.20;;;1.10;;
1613;SDS011;800;48.824;9.346;2022-11-20T10:14:20;1.47;;;1.37;;
1613;SDS011;800;48.824;9.346;2022-11-20T10:29:47;1.30;;;1.20;;
1613;SDS011;800;48.824;9.346;2022-11-20T10:32:27;1.30;;;1.20;;
1613;SDS011;800;48.824;9.346;2022-11-20T10:35:07;1.77;;;0.90;;
1613;SDS011;800;48.824;9.346;2022-11-20T10:37:47;1.30;;;1.20;;
1613;SDS011;800;48.824;9.346;2022-11-20T10:40:35;1.27;;;1.17;;
1613;SDS011;800;48.824;9.346;2022-11-20T10:43:08;2.77;;;1.80;;
1613;SDS011;800;48.824;9.346;2022-11-20T10:48:30;1.40;;;1.30;;
1613;SDS011;800;48.824;9.346;2022-11-20T10:50:59;2.70;;;1.20;;
1613;SDS011;800;48.824;9.346;2022-11-20T11:01:23;1.33;;;1.10;;
1613;SDS011;800;48.824;9.346;2022-11-20T11:03:51;1.17;;;1.07;;
1613;SDS011;800;48.824;9.346;2022-11-20T11:06:31;1.53;;;1.30;;
1613;SDS011;800;48.824;9.346;2022-11-20T11:09:09;1.50;;;1.40;;
1613;SDS011;800;48.824;9.346;2022-11-20T11:11:38;1.10;;;1.00;;
1613;SDS011;800;48.824;9.346;2022-11-20T11:14:08;1.20;;;1.10;;
1613;SDS011;800;48.824;9.346;2022-11-20T11:16:40;1.37;;;1.27;;
1613;SDS011;800;48.824;9.346;2022-11-20T11:19:18;1.27;;;1.10;;
1613;SDS011;800;48.824;9.346;2022-11-20T11:21:45;3.37;;;1.40;;
1613;SDS011;800;48.824;9.346;2022-11-20T11:24:22;1.23;;;1.13;;
1613;SDS011;800;48.824;9.346;2022-11-20T11:26:56;2.67;;;1.90;;
1613;SDS011;800;48.824;9.346;2022-11-20T11:29:29;2.20;;;1.90;;
1613;SDS011;800;48.824;9.346;2022-11-20T11:32:15;2.47;;;1.90;;
1613;SDS011;800;48.824;9.346;2022-11-20T11:34:43;1.60;;;1.50;;
1613;SDS011;800;48.824;9.346;2022-11-20T11:37:15;1.67;;;1.57;;
1613;SDS011;800;48.824;9.346;2022-11-20T11:39:43;2.63;;;1.73;;
1613;SDS011;800;48.824;9.346;2022-11-20T11:42:13;1.73;;;1.63;;
1613;SDS011;800;48.824;9.346;2022-11-20T11:44:46;1.83;;;1.73;;
1613;SDS011;800;48.824;9.346;2022-11-20T12:01:05;1.40;;;1.30;;
1613;SDS011;800;48.824;9.346;2022-11-20T12:04:04;1.77;;;1.37;;
1613;SDS011;800;48.824;9.346;2022-11-20T12:07:01;3.10;;;1.50;;
1613;SDS011;800;48.824;9.346;2022-11-20T12:09:37;1.43;;;1.33;;
1613;SDS011;800;48.824;9.346;2022-11-20T12:12:27;1.60;;;1.50;;
1613;SDS011;800;48.824;9.346;2022-11-20T12:15:04;1.73;;;1.53;;
1613;SDS011;800;48.824;9.346;2022-11-20T12:17:34;2.63;;;1.73;;
1613;SDS011;800;48.824;9.346;2022-11-20T12:20:00;2.90;;;1.53;;
1613;SDS011;800;48.824;9.346;2022-11-20T12:22:35;1.53;;;1.40;;
1613;SDS011;800;48.824;9.346;2022-11-20T12:25:19;8.37;;;2.03;;
1613;SDS011;800;48.824;9.346;2022-11-20T12:30:48;4.80;;;1.50;;
1613;SDS011;800;48.824;9.346;2022-11-20T12:36:17;5.10;;;1.80;;
1613;SDS011;800;48.824;9.346;2022-11-20T12:56:57;1.20;;;0.97;;
1613;SDS011;800;48.824;9.346;2022-11-20T13:07:45;1.13;;;1.13;;
1613;SDS011;800;48.824;9.346;2022-11-20T13:10:23;1.63;;;1.07;;
1613;SDS011;800;48.824;9.346;2022-11-20T13:13:00;1.40;;;1.27;;
1613;SDS011;800;48.824;9.346;2022-11-20T13:18:15;1.93;;;1.10;;
1613;SDS011;800;48.824;9.346;2022-11-20T13:20:42;1.40;;;1.30;;
1613;SDS011;800;48.824;9.346;2022-11-20T13:23:10;2.10;;;1.60;;
1613;SDS011;800;48.824;9.346;2022-11-20T13:25:36;1.83;;;1.30;;
1613;SDS011;800;48.824;9.346;2022-11-20T13:28:05;2.33;;;2.10;;
1613;SDS011;800;48.824;9.346;2022-11-20T13:30:54;1.87;;;1.20;;
1613;SDS011;800;48.824;9.346;2022-11-20T13:33:29;2.80;;;1.30;;
1613;SDS011;800;48.824;9.346;2022-11-20T13:35:57;1.57;;;1.30;;
1613;SDS011;800;48.824;9.346;2022-11-20T13:38:24;1.67;;;0.97;;
1613;SDS011;800;48.824;9.346;2022-11-20T13:40:55;1.10;;;1.00;;
1613;SDS011;800;48.824;9.346;2022-11-20T13:43:26;2.77;;;1.10;;
1613;SDS011;800;48.824;9.346;2022-11-20T13:46:04;1.67;;;1.20;;
1613;SDS011;800;48.824;9.346;2022-11-20T13:48:33;2.30;;;1.30;;
1613;SDS011;800;48.824;9.346;2022-11-20T13:51:15;1.67;;;1.40;;
1613;SDS011;800;48.824;9.346;2022-11-20T13:56:36;1.33;;;1.10;;
1613;SDS011;800;48.824;9.346;2022-11-20T13:59:09;2.17;;;1.00;;
1613;SDS011;800;48.824;9.346;2022-11-20T14:01:58;1.00;;;1.00;;
1613;SDS011;800;48.824;9.346;2022-11-20T14:04:27;1.57;;;1.30;;
1613;SDS011;800;48.824;9.346;2022-11-20T14:06:57;3.03;;;1.20;;
1613;SDS011;800;48.824;9.346;2022-11-20T14:09:28;1.40;;;1.10;;
1613;SDS011;800;48.824;9.346;2022-11-20T14:11:55;1.83;;;1.00;;
1613;SDS011;800;48.824;9.346;2022-11-20T14:14:22;1.50;;;1.03;;
1613;SDS011;800;48.824;9.346;2022-11-20T14:17:03;1.50;;;1.20;;
1613;SDS011;800;48.824;9.346;2022-11-20T14:19:31;2.13;;;1.50;;
1613;SDS011;800;48.824;9.346;2022-11-20T14:22:07;2.37;;;1.30;;
1613;SDS011;800;48.824;9.346;2022-11-20T14:24:43;2.20;;;0.87;;
1613;SDS011;800;48.824;9.346;2022-11-20T14:27:13;4.90;;;1.90;;
1613;SDS011;800;48.824;9.346;2022-11-20T14:29:40;1.60;;;1.20;;
1613;SDS011;800;48.824;9.346;2022-11-20T14:32:08;1.10;;;1.00;;
1613;SDS011;800;48.824;9.346;2022-11-20T14:34:37;1.27;;;0.80;;
1613;SDS011;800;48.824;9.346;2022-11-20T14:37:09;0.90;;;0.83;;
1613;SDS011;800;48.824;9.346;2022-11-20T14:39:40;1.43;;;1.10;;
1613;SDS011;800;48.824;9.346;2022-11-20T14:42:17;1.27;;;1.10;;
1613;SDS011;800;48.824;9.346;2022-11-20T14:44:47;1.27;;;0.90;;
1613;SDS011;800;48.824;9.346;2022-11-20T14:47:15;1.60;;;1.27;;
1613;SDS011;800;48.824;9.346;2022-11-20T14:49:53;1.87;;;1.53;;
1613;SDS011;800;48.824;9.346;2022-11-20T14:52:23;2.90;;;1.53;;
1613;SDS011;800;48.824;9.346;2022-11-20T14:54:51;3.73;;;1.67;;
1613;SDS011;800;48.824;9.346;2022-11-20T14:57:30;2.90;;;1.60;;
1613;SDS011;800;48.824;9.346;2022-11-20T15:00:19;2.37;;;1.53;;
1613;SDS011;800;48.824;9.346;2022-11-20T15:02:52;3.03;;;2.10;;
1613;SDS011;800;48.824;9.346;2022-11-20T15:05:25;5.20;;;2.40;;
1613;SDS011;800;48.824;9.346;2022-11-20T15:08:10;2.43;;;2.23;;
1613;SDS011;800;48.824;9.346;2022-11-20T15:10:35;6.77;;;2.07;;
1613;SDS011;800;48.824;9.346;2022-11-20T15:13:04;2.03;;;1.70;;
1613;SDS011;800;48.824;9.346;2022-11-20T15:15:41;3.73;;;1.90;;
1613;SDS011;800;48.824;9.346;2022-11-20T15:18:17;2.27;;;1.60;;
1613;SDS011;800;48.824;9.346;2022-11-20T15:20:45;2.80;;;1.83;;
1613;SDS011;800;48.824;9.346;2022-11-20T15:23:12;4.83;;;1.77;;
1613;SDS011;800;48.824;9.346;2022-11-20T15:25:45;3.77;;;2.73;;
1613;SDS011;800;48.824;9.346;2022-11-20T15:28:15;5.60;;;2.10;;
1613;SDS011;800;48.824;9.346;2022-11-20T15:30:46;1.70;;;1.60;;
1613;SDS011;800;48.824;9.346;2022-11-20T15:33:13;2.60;;;1.83;;
1613;SDS011;800;48.824;9.346;2022-11-20T15:35:40;2.57;;;2.37;;
1613;SDS011;800;48.824;9.346;2022-11-20T15:38:05;2.97;;;2.20;;
1613;SDS011;800;48.824;9.346;2022-11-20T15:40:31;5.03;;;2.37;;
1613;SDS011;800;48.824;9.346;2022-11-20T15:42:57;2.27;;;1.77;;
1613;SDS011;800;48.824;9.346;2022-11-20T15:45:29;4.87;;;2.13;;
1613;SDS011;800;48.824;9.346;2022-11-20T15:47:59;2.30;;;1.80;;
1613;SDS011;800;48.824;9.346;2022-11-20T15:50:27;2.97;;;2.67;;
1613;SDS011;800;48.824;9.346;2022-11-20T15:53:00;3.83;;;2.60;;
1613;SDS011;800;48.824;9.346;2022-11-20T15:55:29;2.60;;;2.07;;
1613;SDS011;800;48.824;9.346;2022-11-20T15:57:56;2.47;;;1.63;;
1613;SDS011;800;48.824;9.346;2022-11-20T16:00:22;2.57;;;1.73;;
1613;SDS011;800;48.824;9.346;2022-11-20T16:02:47;2.00;;;1.80;;
1613;SDS011;800;48.824;9.346;2022-11-20T16:05:13;2.87;;;2.10;;
1613;SDS011;800;48.824;9.346;2022-11-20T16:07:39;3.00;;;2.00;;
1613;SDS011;800;48.824;9.346;2022-11-20T16:10:05;2.80;;;1.80;;
1613;SDS011;800;48.824;9.346;2022-11-20T16:12:31;3.10;;;2.43;;
1613;SDS011;800;48.824;9.346;2022-11-20T16:15:15;2.10;;;1.90;;
1613;SDS011;800;48.824;9.346;2022-11-20T16:17:59;1.97;;;1.83;;
1613;SDS011;800;48.824;9.346;2022-11-20T16:20:25;2.20;;;2.00;;
1613;SDS011;800;48.824;9.346;2022-11-20T16:22:50;2.50;;;2.27;;
1613;SDS011;800;48.824;9.346;2022-11-20T16:25:16;4.13;;;2.17;;
1613;SDS011;800;48.824;9.346;2022-11-20T16:27:41;3.10;;;1.80;;
1613;SDS011;800;48.824;9.346;2022-11-20T16:30:07;2.40;;;1.87;;
1613;SDS011;800;48.824;9.346;2022-11-20T16:32:33;2.63;;;2.30;;
1613;SDS011;800;48.824;9.346;2022-11-20T16:34:59;3.13;;;2.13;;
1613;SDS011;800;48.824;9.346;2022-11-20T16:37:24;4.23;;;2.80;;
1613;SDS011;800;48.824;9.346;2022-11-20T16:39:50;2.80;;;2.50;;
1613;SDS011;800;48.824;9.346;2022-11-20T16:42:15;2.60;;;2.40;;
1613;SDS011;800;48.824;9.346;2022-11-20T16:44:41;3.50;;;2.40;;
1613;SDS011;800;48.824;9.346;2022-11-20T16:47:10;2.43;;;2.20;;
1613;SDS011;800;48.824;9.346;2022-11-20T16:49:35;2.87;;;2.57;;
1613;SDS011;800;48.824;9.346;2022-11-20T16:52:01;5.03;;;2.83;;
1613;SDS011;800;48.824;9.346;2022-11-20T16:54:26;3.77;;;2.63;;
1613;SDS011;800;48.824;9.346;2022-11-20T16:56:52;4.90;;;4.43;;
1613;SDS011;800;48.824;9.346;2022-11-20T16:59:18;3.80;;;3.50;;
1613;SDS011;800;48.824;9.346;2022-11-20T17:01:43;3.53;;;3.13;;
1613;SDS011;800;48.824;9.346;2022-11-20T17:04:09;4.90;;;2.53;;
1613;SDS011;800;48.824;9.346;2022-11-20T17:06:35;2.63;;;2.43;;
1613;SDS011;800;48.824;9.346;2022-11-20T17:09:04;2.40;;;2.20;;
1613;SDS011;800;48.824;9.346;2022-11-20T17:11:29;4.10;;;2.63;;
1613;SDS011;800;48.824;9.346;2022-11-20T17:13:57;4.17;;;2.87;;
1613;SDS011;800;48.824;9.346;2022-11-20T17:16:31;6.70;;;2.80;;
1613;SDS011;800;48.824;9.346;2022-11-20T17:18:58;2.30;;;2.10;;
1613;SDS011;800;48.824;9.346;2022-11-20T17:21:24;2.70;;;2.13;;
1613;SDS011;800;48.824;9.346;2022-11-20T17:23:50;3.50;;;2.00;;